createdAt,value
2018-10-05T00:02:06.057Z,7.17
2018-10-05T00:04:35.011Z,7.53
2018-10-05T00:07:03.934Z,7.50
2018-10-05T00:09:32.789Z,7.63
2018-10-05T00:12:01.692Z,7.23
2018-10-05T00:14:30.550Z,6.90
2018-10-05T00:16:59.507Z,6.27
2018-10-05T00:19:28.316Z,7.33
2018-10-05T00:21:57.244Z,6.57
2018-10-05T00:24:28.140Z,6.90
2018-10-05T00:26:57.041Z,5.93
2018-10-05T00:29:25.988Z,6.83
2018-10-05T00:31:55.895Z,6.70
2018-10-05T00:34:24.759Z,6.23
2018-10-05T00:36:53.681Z,6.17
2018-10-05T00:39:22.555Z,7.07
2018-10-05T00:41:51.527Z,6.97
2018-10-05T00:44:20.413Z,7.47
2018-10-05T00:46:50.377Z,6.57
2018-10-05T00:49:19.251Z,6.63
2018-10-05T00:51:48.179Z,6.50
2018-10-05T00:54:17.116Z,8.03
2018-10-05T00:56:46.049Z,8.17
2018-10-05T00:59:14.976Z,6.77
2018-10-05T01:01:43.980Z,7.63
2018-10-05T01:04:12.769Z,6.13
2018-10-05T01:06:41.704Z,6.40
2018-10-05T01:09:10.573Z,6.23
2018-10-05T01:11:39.493Z,6.50
2018-10-05T01:14:08.430Z,6.33
2018-10-05T01:16:37.375Z,6.97
2018-10-05T01:19:06.416Z,5.80
2018-10-05T01:21:35.317Z,6.33
2018-10-05T01:24:04.240Z,6.37
2018-10-05T01:26:33.085Z,5.20
2018-10-05T01:29:02.033Z,5.60
2018-10-05T01:31:30.974Z,5.90
2018-10-05T01:33:59.917Z,6.10
2018-10-05T01:36:28.786Z,6.13
2018-10-05T01:38:57.758Z,5.27
2018-10-05T01:41:26.641Z,6.57
2018-10-05T01:43:55.554Z,5.93
2018-10-05T01:46:24.419Z,5.70
2018-10-05T01:48:53.349Z,6.30
2018-10-05T01:51:31.389Z,6.27
2018-10-05T01:54:01.052Z,5.57
2018-10-05T01:56:30.287Z,5.27
2018-10-05T01:58:59.240Z,5.80
2018-10-05T02:01:28.405Z,5.13
2018-10-05T02:03:57.316Z,6.13
2018-10-05T02:06:26.165Z,5.37
2018-10-05T02:08:55.105Z,5.00
2018-10-05T02:11:23.944Z,5.07
2018-10-05T02:13:52.920Z,6.57
2018-10-05T02:16:21.889Z,6.20
2018-10-05T02:18:50.758Z,6.60
2018-10-05T02:21:19.613Z,6.20
2018-10-05T02:23:48.531Z,5.57
2018-10-05T02:26:17.391Z,6.10
2018-10-05T02:28:46.328Z,6.70
2018-10-05T02:31:15.177Z,6.20
2018-10-05T02:33:44.112Z,5.93
2018-10-05T02:36:12.933Z,6.37
2018-10-05T02:38:41.891Z,6.20
2018-10-05T02:41:10.834Z,5.87
2018-10-05T02:43:39.759Z,6.20
2018-10-05T02:46:08.792Z,6.13
2018-10-05T02:48:37.760Z,5.30
2018-10-05T02:51:06.629Z,5.63
2018-10-05T02:53:35.589Z,5.17
2018-10-05T02:56:04.524Z,5.70
2018-10-05T02:58:33.494Z,5.20
2018-10-05T03:01:13.649Z,5.53
2018-10-05T03:03:43.590Z,5.30
2018-10-05T03:06:12.437Z,5.17
2018-10-05T03:08:42.403Z,5.27
2018-10-05T03:11:11.265Z,4.80
2018-10-05T03:13:40.181Z,5.80
2018-10-05T03:16:09.036Z,5.60
2018-10-05T03:18:37.961Z,5.50
2018-10-05T03:21:06.920Z,5.03
2018-10-05T03:23:35.808Z,5.83
2018-10-05T03:26:04.733Z,5.00
2018-10-05T03:28:33.630Z,5.07
2018-10-05T03:31:02.549Z,4.50
2018-10-05T03:33:31.560Z,4.50
2018-10-05T03:36:00.480Z,4.57
2018-10-05T03:38:29.397Z,5.07
2018-10-05T03:40:58.274Z,5.57
2018-10-05T03:43:27.187Z,5.23
2018-10-05T03:45:56.033Z,5.60
2018-10-05T03:48:24.889Z,5.30
2018-10-05T03:50:53.738Z,5.07
2018-10-05T03:53:22.578Z,5.97
2018-10-05T03:55:51.448Z,5.07
2018-10-05T03:58:22.380Z,5.20
2018-10-05T04:00:52.241Z,4.80
2018-10-05T04:03:21.077Z,5.87
2018-10-05T04:05:49.922Z,5.03
2018-10-05T04:08:18.757Z,5.50
2018-10-05T04:10:47.610Z,5.53
2018-10-05T04:13:16.448Z,4.93
2018-10-05T04:15:45.301Z,5.57
2018-10-05T04:18:14.130Z,5.83
2018-10-05T04:20:42.987Z,6.20
2018-10-05T04:23:11.818Z,5.30
2018-10-05T04:25:40.676Z,5.47
2018-10-05T04:28:09.517Z,5.17
2018-10-05T04:30:38.393Z,5.67
2018-10-05T04:33:10.232Z,5.43
2018-10-05T04:35:39.259Z,6.20
2018-10-05T04:38:09.089Z,5.97
2018-10-05T04:40:38.929Z,5.83
2018-10-05T04:43:08.061Z,8.83
2018-10-05T04:45:36.937Z,5.93
2018-10-05T04:48:05.829Z,6.73
2018-10-05T04:50:38.508Z,6.43
2018-10-05T04:53:07.514Z,9.20
2018-10-05T04:55:36.528Z,7.40
2018-10-05T04:58:05.495Z,7.30
2018-10-05T05:00:34.320Z,9.67
2018-10-05T05:03:03.321Z,9.43
2018-10-05T05:05:34.347Z,6.10
2018-10-05T05:08:03.267Z,8.60
2018-10-05T05:10:33.314Z,5.60
2018-10-05T05:13:02.135Z,7.57
2018-10-05T05:15:31.025Z,7.63
2018-10-05T05:18:01.846Z,7.33
2018-10-05T05:20:30.758Z,5.20
2018-10-05T05:22:59.596Z,6.73
2018-10-05T05:25:28.526Z,5.77
2018-10-05T05:27:57.304Z,9.07
2018-10-05T05:30:26.148Z,9.37
2018-10-05T05:32:54.985Z,8.97
2018-10-05T05:35:23.906Z,9.57
2018-10-05T05:37:53.270Z,15.70
2018-10-05T05:40:22.211Z,13.17
2018-10-05T05:42:51.041Z,11.13
2018-10-05T05:45:19.921Z,12.27
2018-10-05T05:47:48.756Z,12.23
2018-10-05T05:50:17.611Z,10.77
2018-10-05T05:52:46.508Z,8.00
2018-10-05T05:55:15.344Z,8.03
2018-10-05T05:57:45.237Z,11.20
2018-10-05T06:00:14.097Z,7.10
2018-10-05T06:02:42.930Z,5.60
2018-10-05T06:05:12.738Z,5.93
2018-10-05T06:07:41.570Z,6.00
2018-10-05T06:10:10.423Z,7.00
2018-10-05T06:12:39.305Z,6.77
2018-10-05T06:15:08.224Z,7.83
2018-10-05T06:17:37.069Z,6.73
2018-10-05T06:20:06.543Z,6.43
2018-10-05T06:22:35.422Z,6.73
2018-10-05T06:25:04.273Z,5.63
2018-10-05T06:27:33.609Z,6.80
2018-10-05T06:30:02.604Z,7.57
2018-10-05T06:32:31.845Z,7.77
2018-10-05T06:35:00.701Z,7.50
2018-10-05T06:37:30.852Z,7.07
2018-10-05T06:40:00.173Z,6.47
2018-10-05T06:42:32.673Z,6.10
2018-10-05T06:45:02.382Z,6.60
2018-10-05T06:47:31.260Z,9.00
2018-10-05T06:50:00.159Z,8.20
2018-10-05T06:52:28.958Z,9.47
2018-10-05T06:54:57.803Z,7.73
2018-10-05T06:57:26.701Z,8.13
2018-10-05T06:59:55.531Z,7.70
2018-10-05T07:02:24.112Z,7.37
2018-10-05T07:04:52.596Z,7.43
2018-10-05T07:07:21.179Z,8.00
2018-10-05T07:09:49.684Z,7.70
2018-10-05T07:12:18.148Z,9.03
2018-10-05T07:14:46.834Z,7.83
2018-10-05T07:17:15.406Z,7.63
2018-10-05T07:19:44.136Z,7.00
2018-10-05T07:22:12.637Z,6.37
2018-10-05T07:24:41.096Z,6.60
2018-10-05T07:27:11.164Z,7.03
2018-10-05T07:29:41.722Z,6.70
2018-10-05T07:32:10.191Z,10.03
2018-10-05T07:34:40.580Z,7.10
2018-10-05T07:37:09.280Z,8.50
2018-10-05T07:39:37.684Z,7.47
2018-10-05T07:42:06.203Z,6.83
2018-10-05T07:44:34.844Z,8.03
2018-10-05T07:47:03.995Z,8.33
2018-10-05T07:49:32.511Z,8.03
2018-10-05T07:52:01.040Z,8.03
2018-10-05T07:54:29.692Z,8.27
2018-10-05T07:56:58.203Z,7.87
2018-10-05T07:59:27.836Z,7.77
2018-10-05T08:01:58.328Z,9.13
2018-10-05T08:04:27.909Z,8.00
2018-10-05T08:06:56.437Z,8.47
2018-10-05T08:09:25.826Z,9.30
2018-10-05T08:11:54.408Z,8.10
2018-10-05T08:14:22.985Z,8.03
2018-10-05T08:16:51.580Z,7.70
2018-10-05T08:19:20.199Z,8.10
2018-10-05T08:21:48.738Z,8.30
2018-10-05T08:24:17.209Z,8.03
2018-10-05T08:26:45.785Z,8.17
2018-10-05T08:29:14.280Z,8.93
2018-10-05T08:31:43.775Z,8.73
2018-10-05T08:34:12.357Z,10.63
2018-10-05T08:36:40.859Z,8.30
2018-10-05T08:39:11.858Z,8.57
2018-10-05T08:41:40.418Z,9.37
2018-10-05T08:44:09.187Z,9.43
2018-10-05T08:46:37.745Z,8.70
2018-10-05T08:49:06.669Z,8.83
2018-10-05T08:51:35.228Z,8.57
2018-10-05T08:54:03.789Z,9.00
2018-10-05T08:56:32.295Z,9.10
2018-10-05T08:59:00.883Z,9.00
2018-10-05T09:01:29.476Z,9.33
2018-10-05T09:03:59.092Z,9.93
2018-10-05T09:06:28.851Z,9.57
2018-10-05T09:08:57.349Z,10.00
2018-10-05T09:11:26.979Z,9.13
2018-10-05T09:13:55.440Z,9.20
2018-10-05T09:16:24.935Z,10.97
2018-10-05T09:18:53.524Z,9.97
2018-10-05T09:21:22.109Z,10.43
2018-10-05T09:23:50.718Z,11.63
2018-10-05T09:26:19.319Z,12.03
2018-10-05T09:28:47.876Z,11.47
2018-10-05T09:31:17.502Z,12.17
2018-10-05T09:33:46.092Z,11.87
2018-10-05T09:36:14.636Z,25.60
2018-10-05T09:38:43.241Z,42.40
2018-10-05T09:41:11.808Z,15.70
2018-10-05T09:43:40.490Z,17.17
2018-10-05T09:46:09.956Z,13.43
2018-10-05T09:48:38.439Z,18.40
2018-10-05T09:51:06.912Z,14.37
2018-10-05T09:53:35.412Z,22.57
2018-10-05T09:56:03.873Z,20.53
2018-10-05T09:58:32.445Z,21.90
2018-10-05T10:01:06.247Z,17.17
2018-10-05T10:03:36.156Z,24.97
2018-10-05T10:06:05.446Z,17.20
2018-10-05T10:08:33.969Z,22.83
2018-10-05T10:11:02.432Z,16.90
2018-10-05T10:13:30.936Z,16.83
2018-10-05T10:15:59.448Z,10.10
2018-10-05T10:18:27.994Z,12.20
2018-10-05T10:20:56.457Z,10.37
2018-10-05T10:23:24.918Z,9.33
2018-10-05T10:25:53.399Z,8.07
2018-10-05T10:28:21.972Z,13.47
2018-10-05T10:30:50.379Z,12.00
2018-10-05T10:33:18.841Z,10.10
2018-10-05T10:35:47.285Z,9.13
2018-10-05T10:38:15.851Z,9.13
2018-10-05T10:40:50.925Z,7.73
2018-10-05T10:43:19.400Z,9.70
2018-10-05T10:45:47.846Z,8.37
2018-10-05T10:48:16.374Z,7.00
2018-10-05T10:50:44.771Z,7.50
2018-10-05T10:53:13.400Z,9.30
2018-10-05T10:55:41.848Z,6.40
2018-10-05T10:58:10.501Z,8.20
2018-10-05T11:00:39.664Z,5.00
2018-10-05T11:03:08.282Z,5.50
2018-10-05T11:05:36.808Z,5.20
2018-10-05T11:08:05.463Z,5.67
2018-10-05T11:10:34.046Z,5.37
2018-10-05T11:13:03.278Z,5.23
2018-10-05T11:15:31.890Z,5.37
2018-10-05T11:18:00.385Z,5.37
2018-10-05T11:20:28.926Z,5.03
2018-10-05T11:22:57.438Z,5.13
2018-10-05T11:25:26.003Z,5.70
2018-10-05T11:27:54.521Z,5.63
2018-10-05T11:30:23.152Z,6.00
2018-10-05T11:32:51.736Z,4.90
2018-10-05T11:35:20.267Z,5.53
2018-10-05T11:37:48.836Z,5.30
2018-10-05T11:40:17.406Z,5.57
2018-10-05T11:42:45.995Z,5.63
2018-10-05T11:45:14.550Z,7.10
2018-10-05T11:47:43.192Z,5.67
2018-10-05T11:50:12.706Z,6.10
2018-10-05T11:52:41.333Z,5.93
2018-10-05T11:55:09.803Z,5.70
2018-10-05T11:57:38.328Z,5.80
2018-10-05T12:00:07.232Z,6.57
2018-10-05T12:02:36.108Z,6.00
2018-10-05T12:05:04.672Z,5.77
2018-10-05T12:07:33.608Z,5.70
2018-10-05T12:10:02.197Z,5.00
2018-10-05T12:12:30.900Z,5.43
2018-10-05T12:14:59.532Z,37.50
2018-10-05T12:17:28.122Z,85.27
2018-10-05T12:19:56.703Z,41.97
2018-10-05T12:22:25.423Z,63.27
2018-10-05T12:24:53.902Z,20.43
2018-10-05T12:27:22.443Z,11.77
2018-10-05T12:29:51.074Z,8.10
2018-10-05T12:32:20.113Z,8.70
2018-10-05T12:34:49.751Z,10.60
2018-10-05T12:37:18.293Z,10.23
2018-10-05T12:39:46.806Z,6.00
2018-10-05T12:42:15.379Z,7.33
2018-10-05T12:44:44.064Z,6.50
2018-10-05T12:47:12.592Z,5.80
2018-10-05T12:49:41.114Z,11.83
2018-10-05T12:52:09.681Z,35.83
2018-10-05T12:54:38.225Z,44.73
2018-10-05T12:57:06.793Z,12.40
2018-10-05T12:59:35.320Z,23.17
2018-10-05T13:02:03.808Z,20.20
2018-10-05T13:04:32.290Z,8.33
2018-10-05T13:07:00.736Z,11.13
2018-10-05T13:09:29.260Z,12.13
2018-10-05T13:11:57.899Z,5.63
2018-10-05T13:14:27.029Z,8.97
2018-10-05T13:16:56.004Z,9.93
2018-10-05T13:19:25.881Z,5.03
2018-10-05T13:21:54.444Z,4.53
2018-10-05T13:24:24.510Z,6.60
2018-10-05T13:26:53.012Z,8.63
2018-10-05T13:29:21.517Z,4.27
2018-10-05T13:31:49.923Z,8.03
2018-10-05T13:34:18.424Z,6.33
2018-10-05T13:36:46.923Z,5.67
2018-10-05T13:39:15.426Z,5.53
2018-10-05T13:41:43.936Z,5.13
2018-10-05T13:44:12.322Z,4.40
2018-10-05T13:46:40.800Z,4.13
2018-10-05T13:49:09.248Z,5.87
2018-10-05T13:51:37.884Z,93.43
2018-10-05T13:54:06.663Z,89.13
2018-10-05T13:56:35.460Z,44.73
2018-10-05T13:59:04.439Z,47.83
2018-10-05T14:01:32.933Z,55.63
2018-10-05T14:04:01.400Z,5.70
2018-10-05T14:06:29.873Z,6.60
2018-10-05T14:08:58.335Z,6.47
2018-10-05T14:11:26.816Z,10.27
2018-10-05T14:13:55.324Z,5.27
2018-10-05T14:16:23.940Z,7.80
2018-10-05T14:18:52.408Z,5.40
2018-10-05T14:21:20.900Z,5.47
2018-10-05T14:23:49.352Z,5.07
2018-10-05T14:26:17.836Z,5.60
2018-10-05T14:28:46.315Z,6.53
2018-10-05T14:31:14.811Z,3.80
2018-10-05T14:33:43.350Z,5.10
2018-10-05T14:36:11.798Z,7.00
2018-10-05T14:38:40.242Z,4.93
2018-10-05T14:41:08.737Z,8.27
2018-10-05T14:43:37.200Z,3.93
2018-10-05T14:46:06.757Z,4.17
2018-10-05T14:48:35.171Z,4.20
2018-10-05T14:51:03.693Z,6.20
2018-10-05T14:53:32.280Z,4.50
2018-10-05T14:56:01.261Z,4.10
2018-10-05T14:58:29.748Z,4.93
2018-10-05T15:00:58.212Z,4.33
2018-10-05T15:03:26.673Z,3.33
2018-10-05T15:05:55.164Z,4.27
2018-10-05T15:08:23.635Z,3.60
2018-10-05T15:10:53.105Z,6.47
2018-10-05T15:13:21.660Z,3.57
2018-10-05T15:15:50.088Z,4.33
2018-10-05T15:18:18.598Z,3.30
2018-10-05T15:20:47.093Z,4.00
2018-10-05T15:23:15.564Z,3.53
2018-10-05T15:25:44.069Z,7.97
2018-10-05T15:28:12.521Z,39.20
2018-10-05T15:30:41.071Z,80.90
2018-10-05T15:33:09.515Z,16.93
2018-10-05T15:35:38.036Z,60.80
2018-10-05T15:38:06.591Z,28.33
2018-10-05T15:40:35.075Z,5.40
2018-10-05T15:43:03.586Z,4.50
2018-10-05T15:45:32.140Z,4.00
2018-10-05T15:48:00.685Z,3.77
2018-10-05T15:53:18.513Z,3.37
2018-10-05T15:55:47.008Z,4.50
2018-10-05T15:58:15.593Z,5.23
2018-10-05T16:00:44.047Z,4.70
2018-10-05T16:03:12.527Z,4.20
2018-10-05T16:05:41.019Z,5.67
2018-10-05T16:08:09.516Z,5.20
2018-10-05T16:10:38.025Z,5.13
2018-10-05T16:13:06.533Z,4.03
2018-10-05T16:15:35.061Z,3.20
2018-10-05T16:18:03.559Z,3.97
2018-10-05T16:20:32.035Z,3.47
2018-10-05T16:23:00.534Z,3.53
2018-10-05T16:25:28.972Z,4.03
2018-10-05T16:27:57.472Z,3.50
2018-10-05T16:30:26.113Z,3.50
2018-10-05T16:32:54.614Z,3.60
2018-10-05T16:35:23.065Z,3.80
2018-10-05T16:37:51.730Z,3.23
2018-10-05T16:40:20.217Z,3.20
2018-10-05T16:42:48.695Z,3.23
2018-10-05T16:45:17.174Z,6.50
2018-10-05T16:47:46.288Z,4.00
2018-10-05T16:50:14.764Z,4.10
2018-10-05T16:52:43.301Z,4.23
2018-10-05T16:55:11.776Z,4.00
2018-10-05T16:57:40.252Z,4.60
2018-10-05T17:00:08.724Z,4.40
2018-10-05T17:02:37.220Z,3.70
2018-10-05T17:05:05.684Z,4.73
2018-10-05T17:07:34.184Z,6.50
2018-10-05T17:10:02.717Z,6.00
2018-10-05T17:12:31.248Z,7.30
2018-10-05T17:14:59.779Z,6.87
2018-10-05T17:17:28.325Z,6.73
2018-10-05T17:19:56.773Z,6.23
2018-10-05T17:22:25.286Z,7.53
2018-10-05T17:24:53.764Z,6.67
2018-10-05T17:27:22.240Z,7.43
2018-10-05T17:29:50.717Z,10.73
2018-10-05T17:32:19.188Z,9.77
2018-10-05T17:34:47.644Z,10.23
2018-10-05T17:37:16.106Z,8.97
2018-10-05T17:39:44.555Z,8.20
2018-10-05T17:42:13.068Z,9.80
2018-10-05T17:44:41.520Z,7.60
2018-10-05T17:47:10.023Z,8.57
2018-10-05T17:49:38.489Z,6.47
2018-10-05T17:52:06.977Z,5.83
2018-10-05T17:54:35.640Z,6.67
2018-10-05T17:57:04.154Z,7.07
2018-10-05T17:59:32.623Z,7.03
2018-10-05T18:02:01.314Z,6.90
2018-10-05T18:04:29.743Z,9.07
2018-10-05T18:06:58.174Z,8.40
2018-10-05T18:09:26.684Z,7.13
2018-10-05T18:11:55.401Z,7.13
2018-10-05T18:14:23.889Z,7.37
2018-10-05T18:16:52.366Z,6.53
2018-10-05T18:19:20.830Z,5.70
2018-10-05T18:21:49.299Z,6.10
2018-10-05T18:24:17.772Z,5.57
2018-10-05T18:26:46.232Z,6.27
2018-10-05T18:29:14.706Z,6.70
2018-10-05T18:31:43.175Z,6.53
2018-10-05T18:34:11.757Z,7.60
2018-10-05T18:36:40.155Z,9.70
2018-10-05T18:39:09.241Z,8.53
2018-10-05T18:41:37.689Z,6.93
2018-10-05T18:44:06.259Z,7.57
2018-10-05T18:46:34.672Z,7.00
2018-10-05T18:49:03.538Z,7.10
2018-10-05T18:51:31.992Z,6.73
2018-10-05T18:54:00.722Z,7.43
2018-10-05T18:56:34.574Z,7.10
2018-10-05T18:59:03.055Z,7.07
2018-10-05T19:01:31.602Z,7.27
2018-10-05T19:04:00.120Z,8.23
2018-10-05T19:06:28.609Z,7.33
2018-10-05T19:08:57.655Z,7.17
2018-10-05T19:11:26.168Z,7.20
2018-10-05T19:13:54.639Z,7.27
2018-10-05T19:16:23.364Z,7.30
2018-10-05T19:18:51.833Z,8.53
2018-10-05T19:21:20.289Z,8.90
2018-10-05T19:23:48.759Z,9.20
2018-10-05T19:26:17.345Z,8.93
2018-10-05T19:28:45.705Z,8.37
2018-10-05T19:31:14.168Z,7.93
2018-10-05T19:33:42.645Z,9.47
2018-10-05T19:36:11.127Z,8.73
2018-10-05T19:38:39.624Z,11.23
2018-10-05T19:41:08.162Z,9.10
2018-10-05T19:43:36.768Z,10.53
2018-10-05T19:46:05.235Z,8.33
2018-10-05T19:48:33.736Z,7.90
2018-10-05T19:51:02.216Z,7.90
2018-10-05T19:53:30.809Z,8.30
2018-10-05T19:55:59.295Z,8.50
2018-10-05T19:58:27.831Z,8.17
2018-10-05T20:00:56.283Z,7.73
2018-10-05T20:03:24.945Z,6.43
2018-10-05T20:05:53.692Z,6.67
2018-10-05T20:08:22.188Z,6.50
2018-10-05T20:10:50.691Z,7.40
2018-10-05T20:13:19.160Z,7.67
2018-10-05T20:15:47.630Z,8.27
2018-10-05T20:18:16.272Z,8.47
2018-10-05T20:20:44.602Z,8.20
2018-10-05T20:23:13.125Z,9.53
2018-10-05T20:25:41.644Z,8.90
2018-10-05T20:28:10.123Z,9.20
2018-10-05T20:30:38.600Z,10.40
2018-10-05T20:33:07.077Z,10.10
2018-10-05T20:35:35.594Z,9.40
2018-10-05T20:38:04.088Z,9.83
2018-10-05T20:40:32.888Z,9.33
2018-10-05T20:43:01.363Z,8.60
2018-10-05T20:45:29.834Z,11.10
2018-10-05T20:47:58.376Z,11.83
2018-10-05T20:50:26.884Z,11.40
2018-10-05T20:52:55.366Z,10.90
2018-10-05T20:55:23.867Z,13.33
2018-10-05T20:57:52.496Z,12.40
2018-10-05T21:00:20.979Z,9.90
2018-10-05T21:02:49.424Z,9.77
2018-10-05T21:05:17.911Z,10.90
2018-10-05T21:07:46.361Z,9.90
2018-10-05T21:10:14.841Z,10.87
2018-10-05T21:12:43.348Z,10.37
2018-10-05T21:15:11.864Z,11.00
2018-10-05T21:17:40.304Z,10.83
2018-10-05T21:20:09.054Z,9.53
2018-10-05T21:22:37.523Z,10.13
2018-10-05T21:25:06.212Z,8.57
2018-10-05T21:27:35.088Z,7.73
2018-10-05T21:30:03.589Z,8.87
2018-10-05T21:32:32.051Z,8.60
2018-10-05T21:35:00.512Z,9.13
2018-10-05T21:37:28.973Z,8.70
2018-10-05T21:39:57.461Z,9.20
2018-10-05T21:42:25.916Z,8.47
2018-10-05T21:44:54.430Z,8.20
2018-10-05T21:47:22.832Z,9.17
2018-10-05T21:49:51.318Z,9.90
2018-10-05T21:52:23.527Z,9.03
2018-10-05T21:54:52.070Z,9.23
2018-10-05T21:57:22.484Z,9.63
2018-10-05T21:59:51.922Z,9.33
2018-10-05T22:02:21.865Z,8.20
2018-10-05T22:04:50.543Z,8.70
2018-10-05T22:07:20.582Z,8.40
2018-10-05T22:09:59.981Z,8.83
2018-10-05T22:12:28.644Z,9.77
2018-10-05T22:14:57.161Z,9.27
2018-10-05T22:17:25.665Z,8.87
2018-10-05T22:19:54.205Z,9.93
2018-10-05T22:22:22.623Z,9.80
2018-10-05T22:24:51.109Z,9.10
2018-10-05T22:27:19.768Z,7.60
2018-10-05T22:29:48.789Z,9.23
2018-10-05T22:32:18.325Z,8.90
2018-10-05T22:34:46.768Z,8.30
2018-10-05T22:37:15.279Z,8.97
2018-10-05T22:39:43.739Z,8.27
2018-10-05T22:42:12.267Z,7.93
2018-10-05T22:44:40.729Z,8.93
2018-10-05T22:47:10.700Z,7.50
2018-10-05T22:49:39.157Z,7.63
2018-10-05T22:52:07.639Z,9.43
2018-10-05T22:54:36.093Z,8.50
2018-10-05T22:57:04.586Z,8.33
2018-10-05T22:59:33.044Z,7.83
2018-10-05T23:02:01.520Z,9.83
2018-10-05T23:04:29.975Z,8.07
2018-10-05T23:06:58.503Z,7.60
2018-10-05T23:09:26.966Z,7.70
2018-10-05T23:11:57.472Z,7.23
2018-10-05T23:14:27.014Z,7.00
2018-10-05T23:16:56.632Z,7.37
2018-10-05T23:19:25.145Z,7.10
2018-10-05T23:21:53.735Z,7.00
2018-10-05T23:24:23.236Z,7.57
2018-10-05T23:26:51.712Z,7.00
2018-10-05T23:29:20.300Z,7.27
2018-10-05T23:31:48.767Z,6.97
2018-10-05T23:34:17.263Z,7.13
2018-10-05T23:36:45.767Z,7.03
2018-10-05T23:39:14.364Z,7.30
2018-10-05T23:41:42.845Z,6.97
2018-10-05T23:44:11.524Z,7.37
2018-10-05T23:46:40.248Z,6.80
2018-10-05T23:49:08.784Z,6.70
2018-10-05T23:51:38.272Z,6.70
2018-10-05T23:54:06.776Z,6.80
2018-10-05T23:56:35.304Z,6.60
2018-10-05T23:59:03.789Z,6.67
